Time;durP1;ratioP1;P1;durP2;ratioP2;P2;SDS_P1;SDS_P2;PMS_P1;PMS_P2;Temp;Humidity;BMP_temperature;BMP_pressure;BME280_temperature;BME280_humidity;BME280_pressure;Samples;Min_cycle;Max_cycle;Signal;HPM_P1;HPM_P2
2021/12/10 00:01:12;;;;;;;3.80;2.90;;;7.60;94.20;;;;;;993414;142;27360;-72
2021/12/10 00:03:39;;;;;;;3.47;3.03;;;7.70;94.60;;;;;;989898;142;27892;-71
2021/12/10 00:06:10;;;;;;;3.30;3.00;;;7.70;94.30;;;;;;982094;145;27728;-71
2021/12/10 00:08:35;;;;;;;3.63;3.03;;;7.70;94.20;;;;;;985700;142;27265;-72
2021/12/10 00:11:01;;;;;;;2.47;2.27;;;7.70;94.20;;;;;;988878;142;28184;-72
2021/12/10 00:13:28;;;;;;;2.70;2.50;;;7.70;94.10;;;;;;990951;142;27235;-72
2021/12/10 00:15:55;;;;;;;3.30;3.00;;;7.70;94.10;;;;;;985340;145;27236;-71
2021/12/10 00:18:21;;;;;;;2.90;2.70;;;7.70;94.00;;;;;;989528;145;27280;-72
2021/12/10 00:20:49;;;;;;;2.83;2.57;;;7.70;94.00;;;;;;981032;145;27300;-71
2021/12/10 00:23:14;;;;;;;2.90;2.53;;;7.70;93.90;;;;;;986208;145;27284;-71
2021/12/10 00:25:41;;;;;;;3.87;2.83;;;7.70;93.90;;;;;;983315;145;27324;-71
2021/12/10 00:28:14;;;;;;;2.33;2.13;;;7.70;93.80;;;;;;988677;144;27371;-72
2021/12/10 00:30:44;;;;;;;3.07;2.73;;;7.70;93.80;;;;;;987871;145;27372;-72
2021/12/10 00:33:08;;;;;;;3.00;2.70;;;7.70;93.80;;;;;;979546;145;27247;-72
2021/12/10 00:35:27;;;;;;;2.60;2.00;;;7.70;93.80;;;;;;984188;145;27234;-72
2021/12/10 00:37:54;;;;;;;2.27;2.17;;;7.70;93.70;;;;;;986163;142;27323;-72
2021/12/10 00:40:20;;;;;;;2.23;2.03;;;7.60;93.70;;;;;;1006203;142;27740;-72
2021/12/10 00:42:47;;;;;;;3.53;2.13;;;7.70;93.80;;;;;;998653;142;27246;-71
2021/12/10 00:45:13;;;;;;;2.57;2.37;;;7.60;93.70;;;;;;996625;142;27708;-72
2021/12/10 00:47:40;;;;;;;2.43;2.00;;;7.60;93.70;;;;;;989565;143;27393;-71
2021/12/10 00:50:07;;;;;;;2.23;2.03;;;7.70;93.80;;;;;;988316;145;27352;-71
2021/12/10 00:52:33;;;;;;;3.97;2.53;;;7.70;93.80;;;;;;995911;142;27255;-72
2021/12/10 00:55:00;;;;;;;3.27;2.37;;;7.60;93.70;;;;;;986585;144;27261;-72
2021/12/10 00:57:26;;;;;;;3.30;2.30;;;7.70;93.70;;;;;;990249;145;27370;-72
2021/12/10 00:59:53;;;;;;;3.90;2.37;;;7.70;93.70;;;;;;973513;145;27306;-71
2021/12/10 01:02:20;;;;;;;4.10;2.90;;;7.70;93.60;;;;;;978449;146;27339;-72
2021/12/10 01:04:46;;;;;;;2.77;2.30;;;7.70;93.60;;;;;;974476;147;27365;-71
2021/12/10 01:07:13;;;;;;;3.30;2.10;;;7.70;93.60;;;;;;971511;145;27402;-71
2021/12/10 01:09:39;;;;;;;2.90;2.40;;;7.70;93.60;;;;;;970178;146;27331;-71
2021/12/10 01:12:34;;;;;;;2.33;2.10;;;7.60;93.60;;;;;;962854;145;27279;-72
2021/12/10 01:28:37;;;;;;;2.87;2.53;;;7.60;93.70;;;;;;935264;147;27277;-71
2021/12/10 01:31:03;;;;;;;2.47;2.23;;;7.60;93.80;;;;;;966295;147;27303;-71
2021/12/10 01:33:30;;;;;;;3.37;2.10;;;7.60;93.70;;;;;;977916;147;27357;-71
2021/12/10 01:35:59;;;;;;;2.50;2.30;;;7.60;93.70;;;;;;978578;146;27299;-72
2021/12/10 01:38:23;;;;;;;2.90;2.23;;;7.60;93.70;;;;;;966009;147;27298;-72
2021/12/10 01:40:52;;;;;;;2.40;2.20;;;7.60;93.70;;;;;;975896;146;27353;-71
2021/12/10 01:43:25;;;;;;;2.60;2.30;;;7.60;93.70;;;;;;966993;147;27623;-71
2021/12/10 01:45:47;;;;;;;1.93;1.83;;;7.60;93.70;;;;;;960909;145;27305;-71
2021/12/10 01:48:12;;;;;;;3.00;2.07;;;7.60;93.70;;;;;;977873;146;27311;-71
2021/12/10 01:50:39;;;;;;;3.13;1.93;;;7.60;93.70;;;;;;975489;146;27242;-71
2021/12/10 01:53:08;;;;;;;3.33;2.00;;;7.60;93.60;;;;;;972734;146;27237;-72
2021/12/10 01:55:36;;;;;;;2.57;2.17;;;7.60;93.60;;;;;;959740;146;27327;-71
2021/12/10 01:58:01;;;;;;;2.60;2.40;;;7.60;93.60;;;;;;967406;143;27398;-71
2021/12/10 02:00:28;;;;;;;2.30;2.10;;;7.60;93.70;;;;;;973226;143;27305;-72
2021/12/10 02:02:54;;;;;;;2.40;2.20;;;7.60;93.70;;;;;;972549;147;27300;-72
2021/12/10 02:05:21;;;;;;;3.63;2.20;;;7.60;93.60;;;;;;966203;143;27321;-71
2021/12/10 02:07:47;;;;;;;4.07;2.43;;;7.60;93.60;;;;;;958181;147;27284;-71
2021/12/10 02:10:14;;;;;;;2.37;2.03;;;7.60;93.60;;;;;;969457;143;27282;-71
2021/12/10 02:12:40;;;;;;;3.03;2.40;;;7.60;93.70;;;;;;969202;147;27270;-71
2021/12/10 02:15:08;;;;;;;2.53;2.17;;;7.60;93.70;;;;;;973070;147;27274;-72
2021/12/10 02:17:34;;;;;;;2.07;1.97;;;7.50;93.70;;;;;;974899;147;28556;-71
2021/12/10 02:20:09;;;;;;;2.73;2.30;;;7.50;93.70;;;;;;976253;143;27249;-72
2021/12/10 02:22:36;;;;;;;3.30;2.20;;;7.50;93.70;;;;;;940477;152;27249;-71
2021/12/10 02:25:03;;;;;;;4.17;2.50;;;7.50;93.70;;;;;;925424;152;27355;-72
2021/12/10 02:27:29;;;;;;;4.10;2.40;;;7.50;93.70;;;;;;955553;149;27362;-71
2021/12/10 02:29:56;;;;;;;2.27;2.03;;;7.50;93.70;;;;;;977761;147;27225;-72
2021/12/10 02:32:24;;;;;;;3.00;2.37;;;7.50;93.70;;;;;;963156;147;27756;-71
2021/12/10 02:34:50;;;;;;;2.43;2.13;;;7.50;93.80;;;;;;957433;147;27384;-72
2021/12/10 02:37:16;;;;;;;3.53;2.50;;;7.50;93.80;;;;;;983433;143;27262;-71
2021/12/10 02:39:42;;;;;;;2.47;2.27;;;7.50;93.90;;;;;;1003402;143;27247;-72
2021/12/10 02:42:09;;;;;;;4.83;2.17;;;7.40;93.90;;;;;;978011;143;27338;-74
2021/12/10 02:44:35;;;;;;;2.60;2.23;;;7.40;93.90;;;;;;973852;146;27303;-72
2021/12/10 02:47:02;;;;;;;3.80;2.20;;;7.50;93.90;;;;;;972507;145;27257;-71
2021/12/10 02:49:29;;;;;;;4.77;2.73;;;7.40;93.90;;;;;;973189;147;27426;-71
2021/12/10 02:51:55;;;;;;;4.03;2.60;;;7.40;93.90;;;;;;974053;147;27357;-73
2021/12/10 02:54:32;;;;;;;2.77;2.30;;;7.40;93.90;;;;;;984906;143;27358;-71
2021/12/10 02:56:48;;;;;;;2.93;2.27;;;7.40;93.90;;;;;;978067;146;27308;-71
2021/12/10 02:59:15;;;;;;;3.10;2.30;;;7.50;93.90;;;;;;975406;146;27280;-71
2021/12/10 03:01:45;;;;;;;2.40;2.20;;;7.40;93.80;;;;;;967617;147;27276;-71
2021/12/10 03:04:11;;;;;;;4.47;2.13;;;7.50;93.90;;;;;;979843;143;27354;-72
2021/12/10 03:06:38;;;;;;;4.07;1.97;;;7.50;93.80;;;;;;977050;143;27312;-72
2021/12/10 03:09:04;;;;;;;3.80;2.17;;;7.50;93.80;;;;;;971527;143;27607;-71
2021/12/10 03:11:31;;;;;;;3.50;2.03;;;7.40;93.70;;;;;;987548;142;27279;-71
2021/12/10 03:13:57;;;;;;;5.30;2.10;;;7.50;93.60;;;;;;975274;147;27253;-72
2021/12/10 03:16:24;;;;;;;3.33;1.93;;;7.50;93.50;;;;;;968850;147;27308;-72
2021/12/10 03:18:51;;;;;;;4.40;2.00;;;7.50;93.40;;;;;;964344;145;27269;-71
2021/12/10 03:21:17;;;;;;;4.30;1.63;;;7.50;93.40;;;;;;973508;146;27253;-71
2021/12/10 03:23:44;;;;;;;4.90;2.03;;;7.50;93.30;;;;;;974489;146;28832;-72
2021/12/10 03:26:10;;;;;;;6.43;1.90;;;7.50;93.30;;;;;;978256;146;27274;-72
2021/12/10 03:28:37;;;;;;;2.73;1.83;;;7.50;93.30;;;;;;990727;143;27762;-72
2021/12/10 03:31:04;;;;;;;3.83;1.97;;;7.50;93.00;;;;;;975691;146;27325;-79
2021/12/10 03:33:30;;;;;;;4.90;1.80;;;7.50;93.10;;;;;;982291;146;27309;-78
2021/12/10 03:35:57;;;;;;;2.47;1.63;;;7.50;93.10;;;;;;984592;143;27247;-79
2021/12/10 03:38:23;;;;;;;4.53;2.70;;;7.50;93.10;;;;;;995748;143;27258;-79
2021/12/10 03:40:50;;;;;;;2.77;1.60;;;7.50;93.10;;;;;;971695;143;27322;-79
2021/12/10 03:43:16;;;;;;;2.57;2.00;;;7.50;93.30;;;;;;974062;143;27335;-78
2021/12/10 03:45:43;;;;;;;3.53;2.57;;;7.60;92.90;;;;;;974384;147;27242;-79
2021/12/10 03:48:10;;;;;;;4.20;2.10;;;7.60;92.80;;;;;;961309;143;27325;-79
2021/12/10 03:50:36;;;;;;;4.70;2.20;;;7.50;92.70;;;;;;964148;143;27269;-79
2021/12/10 03:53:03;;;;;;;3.27;2.07;;;7.50;92.50;;;;;;972193;147;27954;-79
2021/12/10 03:55:29;;;;;;;3.43;2.03;;;7.50;91.90;;;;;;973551;146;27308;-79
2021/12/10 03:57:56;;;;;;;2.67;1.60;;;7.40;92.10;;;;;;971738;146;27326;-79
2021/12/10 04:00:23;;;;;;;6.00;2.30;;;7.30;91.90;;;;;;977362;142;27365;-78
2021/12/10 04:02:49;;;;;;;4.70;2.07;;;7.20;91.80;;;;;;975458;144;27811;-79
2021/12/10 04:05:16;;;;;;;4.63;2.10;;;7.10;91.70;;;;;;978742;144;27297;-79
2021/12/10 04:07:42;;;;;;;1.97;1.83;;;7.00;91.70;;;;;;986336;144;27267;-79
2021/12/10 04:10:09;;;;;;;2.80;1.83;;;6.90;91.60;;;;;;958967;146;27424;-79
2021/12/10 04:12:36;;;;;;;4.13;1.67;;;6.80;91.70;;;;;;970470;144;27929;-79
2021/12/10 04:15:02;;;;;;;4.13;1.67;;;6.60;91.70;;;;;;974314;145;27245;-79
2021/12/10 04:17:29;;;;;;;2.93;1.67;;;6.50;91.80;;;;;;972792;145;27297;-79
2021/12/10 04:19:55;;;;;;;1.90;1.80;;;6.40;91.80;;;;;;982640;146;28151;-79
2021/12/10 04:22:22;;;;;;;4.23;2.10;;;6.30;91.90;;;;;;968858;144;27260;-78
2021/12/10 04:24:48;;;;;;;2.27;1.80;;;6.20;91.90;;;;;;985351;143;27294;-79
2021/12/10 04:27:15;;;;;;;4.67;2.60;;;6.10;92.00;;;;;;985183;144;27232;-79
2021/12/10 04:29:42;;;;;;;4.67;2.30;;;6.00;92.10;;;;;;972288;144;27271;-79
2021/12/10 04:32:08;;;;;;;3.73;1.97;;;5.90;92.10;;;;;;972091;145;27296;-78
2021/12/10 04:34:35;;;;;;;3.70;1.77;;;5.80;92.20;;;;;;969973;146;27380;-79
2021/12/10 04:37:01;;;;;;;4.03;1.57;;;5.70;92.30;;;;;;990585;144;27271;-78
2021/12/10 04:39:29;;;;;;;2.90;2.00;;;5.70;92.40;;;;;;986006;144;27646;-78
2021/12/10 04:41:55;;;;;;;5.50;2.20;;;5.60;92.50;;;;;;986211;144;27273;-78
2021/12/10 04:44:21;;;;;;;2.87;1.93;;;5.50;92.50;;;;;;968852;144;27788;-78
2021/12/10 04:46:48;;;;;;;2.63;2.03;;;5.40;92.60;;;;;;982649;144;27332;-79
2021/12/10 04:49:14;;;;;;;1.50;1.40;;;5.30;92.70;;;;;;976386;144;27793;-78
2021/12/10 04:51:41;;;;;;;6.13;2.10;;;5.30;92.80;;;;;;981438;144;27341;-77
2021/12/10 04:54:07;;;;;;;4.47;1.97;;;5.20;92.80;;;;;;982091;144;27294;-78
2021/12/10 04:56:34;;;;;;;3.33;1.93;;;5.10;92.90;;;;;;977264;144;27376;-78
2021/12/10 04:59:01;;;;;;;3.07;1.70;;;5.10;93.00;;;;;;977392;144;27303;-77
2021/12/10 05:01:27;;;;;;;3.87;1.97;;;5.00;93.10;;;;;;971041;146;27443;-78
2021/12/10 05:03:54;;;;;;;3.73;1.60;;;4.90;93.20;;;;;;982528;143;27236;-78
2021/12/10 05:06:20;;;;;;;3.20;2.20;;;4.90;93.30;;;;;;975015;143;27419;-77
2021/12/10 05:08:47;;;;;;;2.30;1.73;;;4.90;93.40;;;;;;958310;147;27343;-77
2021/12/10 05:11:14;;;;;;;6.13;2.80;;;4.80;93.40;;;;;;972461;143;27266;-78
2021/12/10 05:13:40;;;;;;;5.10;2.23;;;4.80;93.50;;;;;;974184;147;27785;-78
2021/12/10 05:16:07;;;;;;;3.77;1.83;;;4.70;93.60;;;;;;974128;147;27366;-78
2021/12/10 05:18:35;;;;;;;3.83;2.10;;;4.70;93.60;;;;;;987204;143;27414;-78
2021/12/10 05:21:00;;;;;;;4.47;2.23;;;4.70;93.70;;;;;;976751;143;27364;-78
2021/12/10 05:23:26;;;;;;;2.87;1.93;;;4.60;93.70;;;;;;976247;146;27268;-78
2021/12/10 05:25:53;;;;;;;4.17;2.20;;;4.60;93.70;;;;;;960725;147;27309;-78
2021/12/10 05:28:20;;;;;;;3.50;2.00;;;4.60;93.80;;;;;;963943;147;27355;-78
2021/12/10 05:30:46;;;;;;;2.60;2.40;;;4.50;93.90;;;;;;967851;147;27273;-78
2021/12/10 05:33:16;;;;;;;1.90;1.70;;;4.50;94.00;;;;;;975858;143;27232;-78
2021/12/10 05:35:39;;;;;;;5.73;2.10;;;4.50;94.00;;;;;;973424;147;27314;-78
2021/12/10 05:38:06;;;;;;;3.50;1.80;;;4.50;94.10;;;;;;966344;145;27391;-78
2021/12/10 05:40:33;;;;;;;4.80;2.40;;;4.40;94.10;;;;;;974159;147;27285;-78
2021/12/10 05:42:59;;;;;;;2.30;1.93;;;4.40;94.20;;;;;;968766;147;27344;-78
2021/12/10 05:45:26;;;;;;;3.00;2.13;;;4.40;94.30;;;;;;975177;143;27337;-79
2021/12/10 05:47:52;;;;;;;2.20;1.87;;;4.40;94.40;;;;;;970995;143;27737;-79
2021/12/10 05:50:19;;;;;;;3.00;2.10;;;4.40;94.40;;;;;;986700;143;27243;-79
2021/12/10 05:52:45;;;;;;;2.80;2.30;;;4.40;94.40;;;;;;976121;143;27311;-78
2021/12/10 05:55:12;;;;;;;3.10;2.30;;;4.30;94.50;;;;;;974421;147;27277;-76
2021/12/10 05:57:39;;;;;;;2.20;1.93;;;4.30;94.50;;;;;;964334;145;27262;-78
2021/12/10 06:00:05;;;;;;;3.23;2.33;;;4.30;94.50;;;;;;970725;146;27314;-78
2021/12/10 06:02:32;;;;;;;3.10;2.37;;;4.30;94.50;;;;;;974952;146;27351;-78
2021/12/10 06:04:59;;;;;;;6.93;2.87;;;4.30;94.60;;;;;;967998;145;27662;-77
2021/12/10 06:07:25;;;;;;;2.27;1.97;;;4.20;94.50;;;;;;981173;146;27273;-77
2021/12/10 06:09:52;;;;;;;2.83;2.57;;;4.20;94.50;;;;;;974381;142;27273;-78
2021/12/10 06:12:18;;;;;;;3.70;1.90;;;4.20;94.60;;;;;;979671;142;27240;-78
2021/12/10 06:14:45;;;;;;;2.90;2.50;;;4.20;94.60;;;;;;974450;142;27264;-74
2021/12/10 06:17:11;;;;;;;3.00;2.20;;;4.20;94.60;;;;;;979478;146;27288;-78
2021/12/10 06:19:38;;;;;;;4.07;2.30;;;4.20;94.60;;;;;;977183;146;27325;-78
2021/12/10 06:22:05;;;;;;;7.73;2.90;;;4.10;94.60;;;;;;982125;145;27416;-79
2021/12/10 06:24:31;;;;;;;4.37;2.30;;;4.10;94.60;;;;;;939191;150;27354;-77
2021/12/10 06:26:58;;;;;;;2.70;1.97;;;4.10;94.60;;;;;;955360;149;27411;-78
2021/12/10 06:29:26;;;;;;;3.93;2.50;;;4.10;94.60;;;;;;949068;149;27280;-78
2021/12/10 06:31:51;;;;;;;3.27;2.30;;;4.10;94.70;;;;;;962155;146;27307;-77
2021/12/10 06:34:17;;;;;;;4.30;2.17;;;4.00;94.60;;;;;;951326;149;27310;-78
2021/12/10 06:36:44;;;;;;;2.53;2.00;;;4.00;94.60;;;;;;939530;150;27327;-77
2021/12/10 06:39:11;;;;;;;2.30;2.10;;;4.00;94.60;;;;;;956766;145;27313;-78
2021/12/10 06:41:37;;;;;;;4.20;2.50;;;3.90;94.60;;;;;;956914;148;27375;-78
2021/12/10 06:44:04;;;;;;;2.87;2.17;;;3.90;94.60;;;;;;968140;145;27754;-77
2021/12/10 06:46:33;;;;;;;4.93;2.47;;;3.90;94.60;;;;;;957288;145;27299;-77
2021/12/10 06:49:00;;;;;;;5.33;2.17;;;3.90;94.60;;;;;;965023;145;27293;-78
2021/12/10 06:51:26;;;;;;;3.80;2.23;;;3.80;94.60;;;;;;956194;150;27410;-77
2021/12/10 06:53:53;;;;;;;2.87;2.20;;;3.80;94.70;;;;;;982781;145;27212;-78
2021/12/10 06:56:21;;;;;;;3.40;2.07;;;3.70;94.70;;;;;;976310;145;27388;-78
2021/12/10 06:58:46;;;;;;;5.53;2.77;;;3.70;94.80;;;;;;959232;145;27300;-78
2021/12/10 07:01:17;;;;;;;3.23;2.27;;;3.70;94.90;;;;;;952341;147;27301;-77
2021/12/10 07:03:42;;;;;;;3.83;2.40;;;3.70;94.90;;;;;;966890;145;27298;-77
2021/12/10 07:06:08;;;;;;;3.13;2.43;;;3.70;95.00;;;;;;975114;145;27389;-78
2021/12/10 07:08:35;;;;;;;2.87;2.60;;;3.60;95.10;;;;;;943676;148;27312;-78
2021/12/10 07:11:01;;;;;;;4.47;2.77;;;3.60;95.20;;;;;;963558;147;27382;-78
2021/12/10 07:13:28;;;;;;;4.30;2.87;;;3.70;95.30;;;;;;958635;148;27273;-78
2021/12/10 07:15:55;;;;;;;3.53;2.30;;;3.70;95.30;;;;;;961355;148;27320;-77
2021/12/10 07:18:22;;;;;;;5.10;2.93;;;3.70;95.40;;;;;;969884;145;27324;-77
2021/12/10 07:20:48;;;;;;;2.93;2.43;;;3.70;95.30;;;;;;971245;145;27339;-77
2021/12/10 07:23:14;;;;;;;3.50;2.30;;;3.70;95.40;;;;;;946533;148;27363;-78
2021/12/10 07:25:41;;;;;;;3.40;2.00;;;3.70;95.40;;;;;;972151;145;27755;-77
2021/12/10 07:28:08;;;;;;;4.07;2.10;;;3.70;95.40;;;;;;957429;148;27463;-77
2021/12/10 07:30:34;;;;;;;2.30;2.10;;;3.80;95.50;;;;;;956073;148;27417;-78
2021/12/10 07:33:01;;;;;;;3.80;2.23;;;3.80;95.50;;;;;;969304;147;27254;-77
2021/12/10 07:35:27;;;;;;;2.33;2.00;;;3.80;95.70;;;;;;956303;148;27326;-77
2021/12/10 07:37:54;;;;;;;3.27;2.20;;;3.90;95.70;;;;;;945710;150;27269;-78
2021/12/10 07:40:20;;;;;;;3.50;2.00;;;3.90;95.60;;;;;;953042;150;27345;-78
2021/12/10 07:42:47;;;;;;;3.53;1.93;;;4.00;95.60;;;;;;953624;148;27309;-78
2021/12/10 07:45:14;;;;;;;3.47;2.07;;;4.00;95.50;;;;;;961493;147;27343;-78
2021/12/10 07:47:40;;;;;;;5.20;2.77;;;4.10;95.40;;;;;;969692;148;27396;-78
2021/12/10 07:50:07;;;;;;;2.10;1.90;;;4.10;95.40;;;;;;957923;148;27311;-78
2021/12/10 07:52:34;;;;;;;2.30;1.80;;;4.20;95.30;;;;;;956405;148;27779;-77
2021/12/10 07:55:00;;;;;;;5.17;2.30;;;4.20;95.40;;;;;;951499;148;27472;-75
2021/12/10 07:57:27;;;;;;;4.80;2.20;;;4.30;95.60;;;;;;953341;148;27315;-78
2021/12/10 07:59:53;;;;;;;4.13;2.70;;;4.40;96.00;;;;;;946357;151;27319;-77
2021/12/10 08:02:20;;;;;;;2.77;2.40;;;4.50;96.20;;;;;;958176;148;27736;-77
2021/12/10 08:04:46;;;;;;;2.73;2.30;;;4.60;96.50;;;;;;942201;148;27489;-77
2021/12/10 08:07:13;;;;;;;3.17;2.30;;;4.70;96.10;;;;;;974834;143;27262;-77
2021/12/10 08:09:42;;;;;;;2.57;2.37;;;4.90;96.00;;;;;;980752;143;27342;-78
2021/12/10 08:12:09;;;;;;;4.13;2.47;;;5.00;95.80;;;;;;1003120;143;27242;-77
2021/12/10 08:14:35;;;;;;;2.60;2.10;;;5.10;95.50;;;;;;982536;143;27215;-77
2021/12/10 08:17:02;;;;;;;2.47;2.17;;;5.20;95.30;;;;;;975968;147;27298;-77
2021/12/10 08:19:29;;;;;;;3.80;2.17;;;5.20;95.00;;;;;;968819;143;27402;-77
2021/12/10 08:21:55;;;;;;;3.63;2.20;;;5.30;94.80;;;;;;983492;143;27343;-77
2021/12/10 08:24:22;;;;;;;3.13;2.40;;;5.30;94.60;;;;;;966287;145;27238;-78
2021/12/10 08:26:48;;;;;;;2.97;2.00;;;5.30;94.50;;;;;;977684;143;27331;-77
2021/12/10 08:29:16;;;;;;;4.30;2.70;;;5.40;94.40;;;;;;970155;143;27270;-77
2021/12/10 08:31:41;;;;;;;3.13;2.53;;;5.40;94.30;;;;;;976522;143;27228;-77
2021/12/10 08:34:08;;;;;;;3.20;2.37;;;5.50;94.40;;;;;;975226;143;27314;-77
2021/12/10 08:36:35;;;;;;;3.67;2.50;;;5.50;94.40;;;;;;963467;143;27354;-80
2021/12/10 08:39:01;;;;;;;3.50;2.33;;;5.50;94.30;;;;;;976052;145;27267;-78
2021/12/10 08:41:28;;;;;;;2.47;2.27;;;5.60;94.40;;;;;;969517;146;27285;-78
2021/12/10 08:43:56;;;;;;;5.40;2.80;;;5.70;94.60;;;;;;935413;149;27315;-78
2021/12/10 08:46:21;;;;;;;2.73;2.37;;;5.80;94.60;;;;;;976521;147;27256;-78
2021/12/10 08:48:48;;;;;;;4.17;2.30;;;5.80;94.40;;;;;;985039;143;27274;-78
2021/12/10 08:51:17;;;;;;;2.73;2.07;;;5.90;94.20;;;;;;974584;147;27301;-78
2021/12/10 08:53:44;;;;;;;3.47;2.40;;;6.00;94.00;;;;;;965103;143;27767;-78
2021/12/10 08:56:10;;;;;;;4.00;2.30;;;6.00;93.70;;;;;;991887;143;27802;-78
2021/12/10 08:58:37;;;;;;;2.73;2.23;;;6.00;93.50;;;;;;986798;143;27354;-78
2021/12/10 09:01:03;;;;;;;2.70;2.07;;;6.00;93.20;;;;;;993700;143;27240;-77
2021/12/10 09:03:30;;;;;;;4.97;2.40;;;6.00;93.00;;;;;;968028;143;27382;-76
2021/12/10 09:05:57;;;;;;;2.43;1.93;;;6.00;92.80;;;;;;981889;143;27251;-78
2021/12/10 09:08:23;;;;;;;4.30;2.20;;;6.00;92.70;;;;;;975795;143;27240;-78
2021/12/10 09:10:50;;;;;;;2.23;2.00;;;6.00;92.70;;;;;;975147;147;27686;-77
2021/12/10 09:13:19;;;;;;;2.70;1.90;;;5.90;92.60;;;;;;966861;143;27253;-78
2021/12/10 09:15:46;;;;;;;2.53;2.00;;;5.90;92.60;;;;;;961221;143;27291;-76
2021/12/10 09:18:12;;;;;;;4.33;2.67;;;5.90;92.50;;;;;;958383;147;27270;-77
2021/12/10 09:20:39;;;;;;;3.43;1.97;;;5.90;92.50;;;;;;986881;143;27274;-78
2021/12/10 09:23:05;;;;;;;4.17;2.27;;;5.90;92.30;;;;;;972492;147;27259;-78
2021/12/10 09:25:32;;;;;;;4.60;2.10;;;5.90;92.30;;;;;;975127;143;27243;-78
2021/12/10 09:27:59;;;;;;;2.60;2.00;;;5.90;92.30;;;;;;972719;145;27296;-77
2021/12/10 09:30:25;;;;;;;2.67;1.90;;;5.90;92.30;;;;;;975899;146;27273;-78
2021/12/10 09:32:52;;;;;;;4.93;2.30;;;5.90;92.30;;;;;;991928;143;27238;-78
2021/12/10 09:35:18;;;;;;;3.40;2.03;;;5.90;92.30;;;;;;970662;146;27234;-77
2021/12/10 09:37:46;;;;;;;3.03;1.73;;;5.90;92.40;;;;;;966229;143;27309;-80
2021/12/10 09:40:13;;;;;;;1.93;1.83;;;5.90;92.50;;;;;;972303;147;27295;-77
2021/12/10 09:42:38;;;;;;;4.47;2.00;;;5.90;92.50;;;;;;967993;147;27257;-78
2021/12/10 09:45:05;;;;;;;3.77;2.17;;;5.90;92.50;;;;;;973956;146;27819;-76
2021/12/10 09:47:31;;;;;;;2.23;2.00;;;6.00;92.50;;;;;;945694;149;27322;-77
2021/12/10 09:49:58;;;;;;;2.57;1.50;;;6.00;92.50;;;;;;971821;145;27300;-77
2021/12/10 09:52:24;;;;;;;5.23;1.93;;;6.00;92.30;;;;;;976905;146;27332;-78
2021/12/10 09:54:51;;;;;;;2.50;1.90;;;6.10;92.20;;;;;;969116;146;27366;-76
2021/12/10 09:57:24;;;;;;;2.77;1.87;;;6.10;92.00;;;;;;985138;143;27367;-78
2021/12/10 09:59:51;;;;;;;1.77;1.63;;;6.10;91.90;;;;;;973897;146;27265;-75
2021/12/10 10:02:17;;;;;;;2.73;1.97;;;6.10;91.80;;;;;;975790;143;27307;-78
2021/12/10 10:04:48;;;;;;;2.13;1.93;;;6.10;91.70;;;;;;988609;142;27230;-75
2021/12/10 10:07:12;;;;;;;2.60;1.80;;;6.20;91.60;;;;;;990929;142;27272;-78
2021/12/10 10:09:36;;;;;;;2.07;1.87;;;6.20;91.60;;;;;;997396;142;27661;-80
2021/12/10 10:12:06;;;;;;;2.07;1.87;;;6.20;91.50;;;;;;1003563;142;27390;-78
2021/12/10 10:14:33;;;;;;;3.87;2.20;;;6.20;91.50;;;;;;1003068;142;27366;-78
2021/12/10 10:16:59;;;;;;;3.03;2.20;;;6.20;91.50;;;;;;988338;143;27268;-78
2021/12/10 10:19:26;;;;;;;3.93;2.10;;;6.30;91.50;;;;;;977869;143;27279;-77
2021/12/10 10:21:53;;;;;;;3.47;2.30;;;6.30;91.50;;;;;;973437;142;27387;-77
2021/12/10 10:24:19;;;;;;;2.70;2.37;;;6.40;91.60;;;;;;997029;142;27273;-78
2021/12/10 10:26:46;;;;;;;3.73;2.07;;;6.40;91.60;;;;;;981319;142;27251;-78
2021/12/10 10:29:13;;;;;;;4.10;2.23;;;6.50;91.60;;;;;;1004478;142;27329;-76
2021/12/10 10:31:39;;;;;;;2.97;1.83;;;6.50;91.50;;;;;;978592;143;27268;-78
2021/12/10 10:34:07;;;;;;;2.93;2.60;;;6.60;91.50;;;;;;981146;145;27271;-78
2021/12/10 10:36:32;;;;;;;1.87;1.77;;;6.60;91.40;;;;;;981083;142;27271;-78
2021/12/10 10:39:09;;;;;;;3.70;1.97;;;6.70;91.40;;;;;;996112;142;27369;-78
2021/12/10 10:41:34;;;;;;;2.67;2.17;;;6.80;91.30;;;;;;978655;142;27293;-78
2021/12/10 10:44:01;;;;;;;2.43;2.23;;;6.80;91.20;;;;;;994287;142;27309;-78
2021/12/10 10:46:27;;;;;;;3.77;2.50;;;6.90;91.10;;;;;;989717;145;27260;-78
2021/12/10 10:48:54;;;;;;;6.40;2.90;;;6.90;90.90;;;;;;989488;142;27302;-77
2021/12/10 10:51:29;;;;;;;3.73;2.70;;;7.00;90.80;;;;;;982268;143;27294;-78
2021/12/10 10:53:55;;;;;;;3.27;2.67;;;7.00;90.70;;;;;;986445;145;27314;-78
2021/12/10 10:56:31;;;;;;;3.83;2.77;;;7.10;90.80;;;;;;998317;142;27354;-79
2021/12/10 10:59:00;;;;;;;3.93;2.60;;;7.10;90.50;;;;;;996513;142;27303;-78
2021/12/10 11:01:32;;;;;;;4.20;2.57;;;7.10;90.30;;;;;;985901;142;27222;-78
2021/12/10 11:04:14;;;;;;;3.47;3.17;;;7.20;90.20;;;;;;975016;142;27251;-78
2021/12/10 11:06:38;;;;;;;3.20;2.90;;;7.20;90.10;;;;;;968889;146;27271;-76
2021/12/10 11:09:07;;;;;;;3.43;2.90;;;7.20;90.00;;;;;;992873;143;27361;-78
2021/12/10 11:11:35;;;;;;;5.67;2.63;;;7.20;89.70;;;;;;972563;146;27294;-78
2021/12/10 11:14:06;;;;;;;4.03;2.73;;;7.20;89.60;;;;;;977827;143;27399;-78
2021/12/10 11:16:32;;;;;;;2.77;2.57;;;7.30;89.60;;;;;;983752;146;27656;-78
2021/12/10 11:19:11;;;;;;;3.43;2.77;;;7.30;89.50;;;;;;985040;143;27289;-78
2021/12/10 11:21:49;;;;;;;3.80;2.70;;;7.30;89.50;;;;;;972517;143;27237;-78
2021/12/10 11:24:23;;;;;;;3.50;2.90;;;7.30;89.10;;;;;;973540;145;27233;-78
2021/12/10 11:27:02;;;;;;;5.50;3.33;;;7.40;88.80;;;;;;971899;147;27266;-80
2021/12/10 11:29:27;;;;;;;9.90;4.93;;;7.40;88.50;;;;;;981650;143;27253;-78
2021/12/10 11:31:59;;;;;;;5.97;4.13;;;7.40;88.20;;;;;;989098;143;27278;-78
2021/12/10 11:34:41;;;;;;;7.17;5.37;;;7.40;87.90;;;;;;976895;143;27226;-78
2021/12/10 11:37:09;;;;;;;4.73;3.73;;;7.40;87.90;;;;;;971655;143;27275;-78
2021/12/10 11:39:46;;;;;;;5.27;4.13;;;7.40;87.90;;;;;;963074;147;27259;-79
2021/12/10 11:42:33;;;;;;;4.93;4.30;;;7.50;87.80;;;;;;968270;143;27322;-79
2021/12/10 11:45:28;;;;;;;7.03;4.37;;;7.50;87.80;;;;;;984943;143;27246;-78
2021/12/10 11:47:48;;;;;;;3.53;3.23;;;7.50;87.70;;;;;;967667;143;27322;-78
2021/12/10 11:50:16;;;;;;;4.37;3.40;;;7.60;87.60;;;;;;981270;143;27243;-77
2021/12/10 11:52:41;;;;;;;4.00;3.33;;;7.60;87.60;;;;;;974118;147;27325;-78
2021/12/10 11:55:09;;;;;;;5.70;3.70;;;7.60;87.60;;;;;;981345;143;27288;-78
2021/12/10 11:57:37;;;;;;;3.67;3.10;;;7.70;87.70;;;;;;975410;145;27263;-77
2021/12/10 12:00:15;;;;;;;4.07;3.43;;;7.70;87.60;;;;;;996906;143;27262;-78
2021/12/10 12:02:54;;;;;;;4.73;3.00;;;7.80;87.30;;;;;;959656;147;27257;-78
2021/12/10 12:05:20;;;;;;;5.43;3.40;;;7.90;86.80;;;;;;975524;147;27390;-78
2021/12/10 12:07:50;;;;;;;3.40;3.03;;;7.90;86.50;;;;;;995205;142;27336;-79
2021/12/10 12:10:31;;;;;;;3.80;3.43;;;8.00;86.00;;;;;;998287;142;27305;-78
2021/12/10 12:13:10;;;;;;;3.30;2.93;;;8.10;85.90;;;;;;982305;143;27846;-77
2021/12/10 12:15:30;;;;;;;3.33;3.03;;;8.10;85.70;;;;;;986064;145;27289;-78
2021/12/10 12:18:29;;;;;;;2.90;2.70;;;8.10;85.30;;;;;;989563;142;27311;-79
2021/12/10 12:20:54;;;;;;;3.10;2.80;;;8.10;85.20;;;;;;991373;142;27387;-77
2021/12/10 12:26:17;;;;;;;3.73;2.93;;;8.20;84.60;;;;;;984006;143;27310;-78
2021/12/10 12:28:52;;;;;;;3.63;3.33;;;8.20;84.20;;;;;;982850;145;27372;-78
2021/12/10 12:31:19;;;;;;;3.80;3.10;;;8.20;83.60;;;;;;987355;145;27344;-78
2021/12/10 12:33:49;;;;;;;3.33;3.07;;;8.20;83.30;;;;;;986808;142;27229;-78
2021/12/10 12:36:14;;;;;;;3.17;2.90;;;8.10;82.80;;;;;;980000;142;27750;-78
2021/12/10 12:38:41;;;;;;;5.13;3.27;;;8.10;82.50;;;;;;995783;142;27264;-78
2021/12/10 12:41:22;;;;;;;3.63;3.07;;;8.10;82.20;;;;;;996755;142;27346;-78
2021/12/10 12:43:49;;;;;;;4.27;3.00;;;8.00;82.20;;;;;;987269;145;27360;-78
2021/12/10 12:46:16;;;;;;;5.00;2.93;;;8.00;82.20;;;;;;977365;142;27272;-79
2021/12/10 12:48:54;;;;;;;4.73;2.90;;;8.00;82.20;;;;;;989929;142;27394;-78
2021/12/10 12:51:21;;;;;;;3.40;2.77;;;8.00;82.10;;;;;;981410;142;27670;-78
2021/12/10 12:53:47;;;;;;;3.83;2.80;;;7.90;82.10;;;;;;984874;145;27318;-78
2021/12/10 12:56:14;;;;;;;3.13;2.73;;;7.90;82.20;;;;;;976963;145;27280;-78
2021/12/10 12:58:58;;;;;;;4.27;3.50;;;7.90;82.20;;;;;;994179;142;27234;-78
2021/12/10 13:01:30;;;;;;;3.67;3.00;;;7.90;81.90;;;;;;997421;142;27332;-78
2021/12/10 13:03:54;;;;;;;3.50;2.73;;;7.90;81.90;;;;;;992060;142;27280;-78
2021/12/10 13:06:30;;;;;;;3.80;3.07;;;7.90;81.70;;;;;;982874;144;27291;-78
2021/12/10 13:09:08;;;;;;;3.10;2.43;;;7.90;81.50;;;;;;992593;144;27365;-78
2021/12/10 13:11:52;;;;;;;5.10;2.83;;;7.90;81.70;;;;;;989361;142;27416;-77
2021/12/10 13:14:16;;;;;;;4.50;3.20;;;7.90;81.40;;;;;;994212;142;27793;-78
2021/12/10 13:16:43;;;;;;;4.57;3.77;;;7.80;80.50;;;;;;992823;142;27403;-78